Time;durP1;ratioP1;P1;durP2;ratioP2;P2;SDS_P1;SDS_P2;PMS_P1;PMS_P2;Temp;Humidity;BMP_temperature;BMP_pressure;BME280_temperature;BME280_humidity;BME280_pressure;Samples;Min_cycle;Max_cycle;Signal;HPM_P1;HPM_P2
2022/09/05 00:01:12;;;;;;;4.10;3.70;;;18.70;99.90;;;;;;5017792;28;20099;-74
2022/09/05 00:03:56;;;;;;;5.97;3.67;;;18.70;99.90;;;;;;5034931;28;20440;-74
2022/09/05 00:06:26;;;;;;;4.25;3.85;;;18.70;99.90;;;;;;5021528;28;20082;-74
2022/09/05 00:09:17;;;;;;;5.90;4.00;;;18.60;99.90;;;;;;5003114;28;20037;-75
2022/09/05 00:11:48;;;;;;;5.38;3.90;;;18.60;99.90;;;;;;5018441;28;20082;-74
2022/09/05 00:14:46;;;;;;;6.25;4.10;;;18.60;99.90;;;;;;5019989;28;20123;-72
2022/09/05 00:17:33;;;;;;;4.40;4.00;;;18.60;99.90;;;;;;5026809;28;20115;-73
2022/09/05 00:20:32;;;;;;;4.80;4.30;;;18.50;99.90;;;;;;5012518;28;20120;-73
2022/09/05 00:23:14;;;;;;;5.10;4.60;;;18.50;99.90;;;;;;5026160;28;20053;-74
2022/09/05 00:25:56;;;;;;;5.45;4.95;;;18.50;99.90;;;;;;5019174;28;20037;-74
2022/09/05 00:28:41;;;;;;;5.88;5.20;;;18.40;99.90;;;;;;5030767;28;20064;-71
2022/09/05 00:31:14;;;;;;;5.88;5.15;;;18.40;99.90;;;;;;5017031;28;20603;-73
2022/09/05 00:34:06;;;;;;;4.95;4.45;;;18.40;99.90;;;;;;5026177;28;20044;-72
2022/09/05 00:36:39;;;;;;;7.10;4.95;;;18.40;99.90;;;;;;5028607;28;20044;-76
2022/09/05 00:39:20;;;;;;;7.65;5.00;;;18.40;99.90;;;;;;5035113;28;20036;-76
2022/09/05 00:41:49;;;;;;;5.00;4.50;;;18.30;99.90;;;;;;5030999;28;20045;-72
2022/09/05 00:44:18;;;;;;;5.65;4.93;;;18.30;99.90;;;;;;5008271;28;20044;-71
2022/09/05 00:47:02;;;;;;;5.45;4.90;;;18.30;99.90;;;;;;5041167;28;20045;-75
2022/09/05 00:49:47;;;;;;;6.32;4.47;;;18.30;99.90;;;;;;5017661;28;20047;-76
2022/09/05 00:52:46;;;;;;;5.93;5.32;;;18.30;99.90;;;;;;5029820;28;20052;-72
2022/09/05 00:55:43;;;;;;;6.47;4.88;;;18.30;99.90;;;;;;5002883;28;20052;-74
2022/09/05 00:58:32;;;;;;;5.93;4.60;;;18.30;99.90;;;;;;5025928;28;20067;-74
2022/09/05 01:00:58;;;;;;;5.78;5.05;;;18.20;99.90;;;;;;5013295;28;20049;-73
2022/09/05 01:03:51;;;;;;;5.55;4.97;;;18.20;99.90;;;;;;5014316;28;20037;-73
2022/09/05 01:06:22;;;;;;;8.23;5.07;;;18.10;99.90;;;;;;5026425;28;20040;-75
2022/09/05 01:09:21;;;;;;;5.43;4.68;;;18.10;99.90;;;;;;5014425;28;20072;-74
2022/09/05 01:12:07;;;;;;;5.85;4.90;;;18.10;99.90;;;;;;5021278;28;20106;-73
2022/09/05 01:15:10;;;;;;;7.55;5.10;;;18.10;99.90;;;;;;5015240;28;20691;-73
2022/09/05 01:18:01;;;;;;;5.20;4.70;;;18.10;99.90;;;;;;5030079;28;20099;-75
2022/09/05 01:20:38;;;;;;;5.93;4.55;;;18.10;99.90;;;;;;5015651;28;20132;-72
2022/09/05 01:23:22;;;;;;;4.80;4.40;;;18.00;99.90;;;;;;5030086;28;20047;-75
2022/09/05 01:26:29;;;;;;;5.07;4.35;;;18.00;99.90;;;;;;5029111;28;21759;-74
2022/09/05 01:29:13;;;;;;;6.05;4.60;;;18.00;99.90;;;;;;5027889;28;20657;-73
2022/09/05 01:31:44;;;;;;;6.70;4.45;;;18.00;99.90;;;;;;5013559;28;20040;-74
2022/09/05 01:34:36;;;;;;;7.15;4.90;;;17.90;99.90;;;;;;5031196;28;20170;-72
2022/09/05 01:37:38;;;;;;;5.75;5.15;;;17.90;99.90;;;;;;5011199;28;20107;-73
2022/09/05 01:40:49;;;;;;;6.43;4.93;;;17.90;99.90;;;;;;5010483;28;20041;-75
2022/09/05 01:43:17;;;;;;;7.38;4.85;;;17.90;99.90;;;;;;4991508;28;20060;-73
2022/09/05 01:46:08;;;;;;;4.93;4.53;;;17.80;99.90;;;;;;5022263;28;20044;-72
2022/09/05 01:48:56;;;;;;;6.45;5.05;;;17.80;99.90;;;;;;5024648;28;20045;-76
2022/09/05 01:52:07;;;;;;;5.32;4.82;;;17.70;99.90;;;;;;5021724;28;20394;-75
2022/09/05 01:54:36;;;;;;;6.15;5.13;;;17.70;99.90;;;;;;5023684;28;20569;-73
2022/09/05 01:57:49;;;;;;;6.18;5.13;;;17.70;99.90;;;;;;5010101;28;20548;-75
2022/09/05 02:00:23;;;;;;;6.75;5.28;;;17.70;99.90;;;;;;5013155;28;20496;-76
2022/09/05 02:03:01;;;;;;;5.75;4.47;;;17.60;99.90;;;;;;5024296;28;20721;-76
2022/09/05 02:05:47;;;;;;;5.60;4.80;;;17.60;99.90;;;;;;5004253;28;20328;-74
2022/09/05 02:08:28;;;;;;;5.93;4.90;;;17.50;99.90;;;;;;5026389;28;20045;-76
2022/09/05 02:11:06;;;;;;;5.45;4.93;;;17.50;99.90;;;;;;5024451;28;20068;-73
2022/09/05 02:13:34;;;;;;;7.93;4.85;;;17.40;99.90;;;;;;5022291;28;20067;-76
2022/09/05 02:16:25;;;;;;;5.45;4.88;;;17.40;99.90;;;;;;5024259;28;20405;-75
2022/09/05 02:18:58;;;;;;;5.25;4.75;;;17.40;99.90;;;;;;5023072;28;20480;-75
2022/09/05 02:21:36;;;;;;;5.35;4.85;;;17.30;99.90;;;;;;5022267;28;20043;-75
2022/09/05 02:24:22;;;;;;;4.50;4.10;;;17.30;99.90;;;;;;5023966;28;20056;-75
2022/09/05 02:27:05;;;;;;;5.22;4.78;;;17.30;99.90;;;;;;5025755;28;20048;-72
2022/09/05 02:30:09;;;;;;;5.13;4.60;;;17.20;99.90;;;;;;5023713;28;20041;-75
2022/09/05 02:32:47;;;;;;;5.30;4.80;;;17.20;99.90;;;;;;4963114;28;20158;-74
2022/09/05 02:35:32;;;;;;;5.20;4.70;;;17.10;99.90;;;;;;4998749;28;20048;-73
2022/09/05 02:38:11;;;;;;;6.25;4.75;;;17.10;99.90;;;;;;5023780;28;20041;-75
2022/09/05 02:40:52;;;;;;;5.43;4.90;;;17.10;99.90;;;;;;5023116;28;20398;-71
2022/09/05 02:43:40;;;;;;;9.80;4.97;;;17.00;99.90;;;;;;5005606;28;20052;-75
2022/09/05 02:46:15;;;;;;;6.00;5.00;;;16.90;99.90;;;;;;5020165;28;20033;-73
2022/09/05 02:48:40;;;;;;;;;;;16.90;99.90;;;;;;5009775;28;20263;-72
2022/09/05 02:51:35;;;;;;;5.28;4.68;;;16.90;99.90;;;;;;5019305;28;20436;-74
2022/09/05 02:54:12;;;;;;;6.17;5.33;;;16.80;99.90;;;;;;5005184;28;20041;-76
2022/09/05 02:57:03;;;;;;;6.90;4.95;;;16.80;99.90;;;;;;5041612;28;20040;-73
2022/09/05 02:59:38;;;;;;;5.30;4.80;;;16.80;99.90;;;;;;5026594;28;20461;-73
2022/09/05 03:02:09;;;;;;;5.20;4.70;;;16.80;99.90;;;;;;5015323;28;20476;-75
2022/09/05 03:04:43;;;;;;;5.63;5.10;;;16.70;99.90;;;;;;5023067;28;20039;-73
2022/09/05 03:07:31;;;;;;;6.88;4.82;;;16.70;99.90;;;;;;5026785;28;20041;-75
2022/09/05 03:10:06;;;;;;;5.65;5.15;;;16.70;99.90;;;;;;5030847;28;20158;-73
2022/09/05 03:12:41;;;;;;;6.00;5.40;;;16.60;99.90;;;;;;5008977;28;20037;-76
2022/09/05 03:15:35;;;;;;;4.82;4.32;;;16.60;99.90;;;;;;5030343;28;20032;-74
2022/09/05 03:18:32;;;;;;;6.18;5.40;;;16.60;99.90;;;;;;5028679;28;20036;-75
2022/09/05 03:21:22;;;;;;;7.28;4.97;;;16.50;99.90;;;;;;5012349;28;20103;-74
2022/09/05 03:24:10;;;;;;;5.80;5.20;;;16.50;99.90;;;;;;5025889;28;20127;-73
2022/09/05 03:27:00;;;;;;;5.88;5.30;;;16.50;99.90;;;;;;5014297;28;20385;-76
2022/09/05 03:30:14;;;;;;;6.45;5.20;;;16.40;99.90;;;;;;5010800;28;20049;-74
2022/09/05 03:33:02;;;;;;;6.28;5.30;;;16.40;99.90;;;;;;4982141;28;20826;-76
2022/09/05 03:35:53;;;;;;;9.20;5.90;;;16.40;99.90;;;;;;4990612;28;20057;-76
2022/09/05 03:38:31;;;;;;;6.55;5.25;;;16.30;99.90;;;;;;5011689;28;20120;-73
2022/09/05 03:41:11;;;;;;;5.78;5.13;;;16.40;99.90;;;;;;4991130;28;20045;-73
2022/09/05 03:44:23;;;;;;;5.60;5.00;;;16.40;99.90;;;;;;4995230;28;20079;-74
2022/09/05 03:47:08;;;;;;;5.63;5.13;;;16.30;99.90;;;;;;5009364;28;20033;-74
2022/09/05 03:49:55;;;;;;;7.00;5.00;;;16.30;99.90;;;;;;5007247;28;20034;-75
2022/09/05 03:52:42;;;;;;;6.72;5.00;;;16.20;99.90;;;;;;5009542;28;20056;-73
2022/09/05 03:55:34;;;;;;;6.40;5.18;;;16.20;99.90;;;;;;5007849;28;20498;-74
2022/09/05 03:58:24;;;;;;;6.03;5.43;;;16.20;99.90;;;;;;5010934;28;20071;-75
2022/09/05 04:01:22;;;;;;;5.70;5.18;;;16.10;99.90;;;;;;5010887;28;20056;-74
2022/09/05 04:03:57;;;;;;;6.38;5.70;;;16.10;99.90;;;;;;5022793;28;20080;-73
2022/09/05 04:06:32;;;;;;;;;;;16.00;99.90;;;;;;5012419;28;20063;-77
2022/09/05 04:09:24;;;;;;;6.40;5.32;;;16.10;99.90;;;;;;4998312;28;20365;-76
2022/09/05 04:11:54;;;;;;;8.43;5.32;;;16.00;99.90;;;;;;5014611;28;20038;-77
2022/09/05 04:14:51;;;;;;;7.75;5.90;;;16.00;99.90;;;;;;4993997;28;20052;-75
2022/09/05 04:17:29;;;;;;;5.72;5.20;;;15.90;99.90;;;;;;4996991;28;20084;-77
2022/09/05 04:20:02;;;;;;;6.00;5.40;;;15.90;99.90;;;;;;5010555;28;20072;-75
2022/09/05 04:22:52;;;;;;;6.20;5.60;;;15.90;99.90;;;;;;5002011;28;20490;-75
2022/09/05 04:26:13;;;;;;;7.13;6.43;;;15.80;99.90;;;;;;4996382;28;20045;-73
2022/09/05 04:28:58;;;;;;;6.78;5.93;;;15.90;99.90;;;;;;4954452;28;20047;-74
2022/09/05 04:31:40;;;;;;;7.57;6.32;;;15.80;99.90;;;;;;5009474;28;20543;-76
2022/09/05 04:34:15;;;;;;;6.78;6.10;;;15.80;99.90;;;;;;4983698;28;20067;-76
2022/09/05 04:36:44;;;;;;;7.22;6.35;;;15.80;99.90;;;;;;5016359;28;20460;-78
2022/09/05 04:39:18;;;;;;;7.72;6.32;;;15.70;99.90;;;;;;5011830;28;20042;-77
2022/09/05 04:41:55;;;;;;;7.68;5.90;;;15.70;99.90;;;;;;4995411;28;20465;-74
2022/09/05 04:44:31;;;;;;;5.90;5.40;;;15.70;99.90;;;;;;5012171;28;20069;-74
2022/09/05 04:47:08;;;;;;;6.70;6.00;;;15.70;99.90;;;;;;5010927;28;20052;-74
2022/09/05 04:49:40;;;;;;;6.75;6.05;;;15.70;99.90;;;;;;4992695;28;20048;-72
2022/09/05 04:52:43;;;;;;;6.43;5.80;;;15.70;99.90;;;;;;5011966;28;20068;-72
2022/09/05 04:55:39;;;;;;;6.63;6.03;;;15.60;99.90;;;;;;4989764;28;20398;-74
2022/09/05 04:58:36;;;;;;;6.45;5.85;;;15.60;99.90;;;;;;5010323;28;20046;-73
2022/09/05 05:01:24;;;;;;;7.72;5.88;;;15.60;99.90;;;;;;4997565;28;20103;-72
2022/09/05 05:03:50;;;;;;;7.82;6.13;;;15.60;99.90;;;;;;5012036;28;20689;-74
2022/09/05 05:06:28;;;;;;;6.65;5.90;;;15.60;99.90;;;;;;4994423;28;21931;-75
2022/09/05 05:09:11;;;;;;;6.35;5.75;;;15.60;99.90;;;;;;4998069;28;20038;-75
2022/09/05 05:11:55;;;;;;;7.53;6.47;;;15.60;99.90;;;;;;4998076;28;20098;-73
2022/09/05 05:14:26;;;;;;;8.73;6.57;;;15.60;99.90;;;;;;4996330;28;20049;-74
2022/09/05 05:17:24;;;;;;;7.18;5.50;;;15.60;99.90;;;;;;5009941;28;20107;-74
2022/09/05 05:20:00;;;;;;;9.07;5.97;;;15.50;99.90;;;;;;4989279;28;20463;-73
2022/09/05 05:22:25;;;;;;;8.70;5.95;;;15.40;99.90;;;;;;5011709;28;20120;-74
2022/09/05 05:24:55;;;;;;;7.78;5.82;;;15.50;99.90;;;;;;4978976;28;20130;-76
2022/09/05 05:27:26;;;;;;;6.78;6.05;;;15.50;99.90;;;;;;4997602;28;20054;-76
2022/09/05 05:30:08;;;;;;;6.78;6.18;;;15.50;99.90;;;;;;5033746;28;20043;-74
2022/09/05 05:32:36;;;;;;;5.72;5.22;;;15.50;99.90;;;;;;4996509;28;20100;-75
2022/09/05 05:35:08;;;;;;;6.50;5.90;;;15.60;99.90;;;;;;4994801;28;20079;-76
2022/09/05 05:37:44;;;;;;;9.40;6.10;;;15.60;99.90;;;;;;4996503;28;20037;-74
2022/09/05 05:40:15;;;;;;;7.22;6.50;;;15.50;99.90;;;;;;5012284;28;20383;-75
2022/09/05 05:42:43;;;;;;;7.68;5.45;;;15.60;99.90;;;;;;4995969;28;20140;-76
2022/09/05 05:45:29;;;;;;;6.20;5.70;;;15.60;99.90;;;;;;5011683;28;20083;-74
2022/09/05 05:48:01;;;;;;;6.07;5.47;;;15.60;99.90;;;;;;5013932;28;20041;-76
2022/09/05 05:51:05;;;;;;;7.40;5.75;;;15.70;99.90;;;;;;4995906;28;20957;-74
2022/09/05 05:54:15;;;;;;;6.40;5.80;;;15.70;99.90;;;;;;5012962;28;20049;-76
2022/09/05 05:57:02;;;;;;;6.15;5.60;;;15.70;99.90;;;;;;4992102;28;20045;-74
2022/09/05 05:59:55;;;;;;;5.93;5.32;;;15.80;99.90;;;;;;5014697;28;20128;-73
2022/09/05 06:02:52;;;;;;;6.70;6.10;;;15.80;99.90;;;;;;5012455;28;20029;-77
2022/09/05 06:05:56;;;;;;;5.97;5.38;;;15.80;99.90;;;;;;4990474;28;20047;-75
2022/09/05 06:09:11;;;;;;;8.40;6.57;;;15.90;99.90;;;;;;4940482;28;20054;-73
2022/09/05 06:11:40;;;;;;;7.55;5.57;;;16.00;99.90;;;;;;4975824;28;20107;-75
2022/09/05 06:14:45;;;;;;;6.55;5.95;;;16.00;99.90;;;;;;4992867;28;20033;-76
2022/09/05 06:17:36;;;;;;;6.95;6.22;;;16.10;99.90;;;;;;5012430;28;20432;-74
2022/09/05 06:20:20;;;;;;;6.75;5.75;;;16.20;99.90;;;;;;4996135;28;20045;-74
2022/09/05 06:23:14;;;;;;;8.48;6.28;;;16.30;99.90;;;;;;5008414;28;20053;-74
2022/09/05 06:26:07;;;;;;;8.32;6.55;;;16.40;99.90;;;;;;5002873;28;20037;-76
2022/09/05 06:28:42;;;;;;;6.70;6.05;;;16.40;99.90;;;;;;5016740;28;20535;-76
2022/09/05 06:31:25;;;;;;;7.03;5.68;;;16.50;99.90;;;;;;4999068;28;20041;-75
2022/09/05 06:34:26;;;;;;;8.85;6.05;;;16.60;99.90;;;;;;5015134;28;20043;-73
2022/09/05 06:37:06;;;;;;;7.03;5.78;;;16.70;99.90;;;;;;4957720;28;20053;-74
2022/09/05 06:39:50;;;;;;;6.72;6.13;;;16.80;99.90;;;;;;5019738;28;20052;-73
2022/09/05 06:42:24;;;;;;;8.35;6.28;;;16.90;99.90;;;;;;5011468;28;20046;-73
2022/09/05 06:45:29;;;;;;;6.70;6.10;;;17.00;99.90;;;;;;4993054;28;20038;-72
2022/09/05 06:48:09;;;;;;;7.05;6.35;;;17.20;99.90;;;;;;5013508;28;20407;-74
2022/09/05 06:50:49;;;;;;;7.15;6.45;;;17.30;99.90;;;;;;5016882;28;20053;-74
2022/09/05 06:53:21;;;;;;;6.45;5.85;;;17.40;99.90;;;;;;4995464;28;20660;-74
2022/09/05 06:55:47;;;;;;;8.75;6.55;;;17.50;99.90;;;;;;4996466;28;20449;-74
2022/09/05 06:58:16;;;;;;;6.65;5.95;;;17.60;99.90;;;;;;5003232;28;20087;-76
2022/09/05 07:00:51;;;;;;;8.80;6.30;;;17.70;99.90;;;;;;4994537;28;20048;-76
2022/09/05 07:03:36;;;;;;;6.68;6.07;;;17.90;99.90;;;;;;5005305;28;20049;-75
2022/09/05 07:06:27;;;;;;;6.20;5.70;;;18.00;99.90;;;;;;5012674;28;20055;-75
2022/09/05 07:09:23;;;;;;;6.53;5.93;;;18.10;99.90;;;;;;4977172;28;20038;-74
2022/09/05 07:12:13;;;;;;;7.88;6.05;;;18.20;99.90;;;;;;4998315;28;20149;-73
2022/09/05 07:15:07;;;;;;;6.13;5.63;;;18.30;99.90;;;;;;4995408;28;20401;-76
2022/09/05 07:17:36;;;;;;;6.22;5.63;;;18.40;99.90;;;;;;4992284;28;20045;-77
2022/09/05 07:20:28;;;;;;;6.88;5.57;;;18.40;99.90;;;;;;4998465;28;21629;-75
2022/09/05 07:23:06;;;;;;;7.78;6.15;;;18.50;99.90;;;;;;5017022;28;20457;-76
2022/09/05 07:25:32;;;;;;;6.30;5.80;;;18.60;99.90;;;;;;5001695;28;20428;-74
2022/09/05 07:28:11;;;;;;;6.43;5.82;;;18.70;99.90;;;;;;5026585;28;20505;-74
2022/09/05 07:30:49;;;;;;;5.10;4.63;;;18.90;99.90;;;;;;5031264;28;20041;-74
2022/09/05 07:33:25;;;;;;;7.45;5.35;;;19.10;99.90;;;;;;5015479;28;20049;-74
2022/09/05 07:35:53;;;;;;;5.28;4.78;;;19.20;99.90;;;;;;5024873;28;20049;-75
2022/09/05 07:38:30;;;;;;;5.55;4.72;;;19.30;99.90;;;;;;4996903;28;20037;-74
2022/09/05 07:41:17;;;;;;;6.28;5.50;;;19.40;99.90;;;;;;5008441;28;20041;-74
2022/09/05 07:43:45;;;;;;;7.43;5.53;;;19.50;99.90;;;;;;5027375;28;20032;-73
2022/09/05 07:46:22;;;;;;;6.10;5.50;;;19.60;99.90;;;;;;5036242;28;20382;-72
2022/09/05 07:48:54;;;;;;;5.72;4.88;;;19.80;99.90;;;;;;5036312;28;20040;-73
2022/09/05 07:51:26;;;;;;;5.90;5.10;;;19.90;99.90;;;;;;5036140;28;20045;-75
2022/09/05 07:54:09;;;;;;;5.63;4.72;;;20.00;99.90;;;;;;5008539;28;20072;-73
2022/09/05 07:56:42;;;;;;;6.22;5.55;;;20.10;99.90;;;;;;5008514;28;20068;-74
2022/09/05 07:59:12;;;;;;;7.53;5.47;;;20.10;99.90;;;;;;5015499;28;20091;-72
2022/09/05 08:01:42;;;;;;;6.50;5.22;;;20.20;99.90;;;;;;5015012;28;20076;-74
2022/09/05 08:04:11;;;;;;;4.97;4.47;;;20.20;99.90;;;;;;5008646;28;20036;-72
2022/09/05 08:06:39;;;;;;;6.22;5.25;;;20.30;99.90;;;;;;5013903;28;20100;-72
2022/09/05 08:09:15;;;;;;;7.28;5.22;;;20.40;99.90;;;;;;5016332;28;20076;-74
2022/09/05 08:11:41;;;;;;;8.68;5.30;;;20.50;99.90;;;;;;5015784;28;20042;-73
2022/09/05 08:14:28;;;;;;;6.10;5.10;;;20.60;99.90;;;;;;5009727;28;20111;-72
2022/09/05 08:16:54;;;;;;;5.45;4.95;;;20.70;99.90;;;;;;5003262;28;20065;-71
2022/09/05 08:19:34;;;;;;;5.85;5.22;;;20.70;99.90;;;;;;5008644;28;20084;-72
2022/09/05 08:22:02;;;;;;;6.60;5.20;;;20.80;99.90;;;;;;5016287;28;20098;-74
2022/09/05 08:24:52;;;;;;;7.25;5.40;;;20.90;99.90;;;;;;5011111;28;20041;-72
2022/09/05 08:27:20;;;;;;;6.63;5.05;;;21.10;99.90;;;;;;5016920;28;20387;-76
2022/09/05 08:29:56;;;;;;;6.57;5.60;;;21.10;99.90;;;;;;5014280;28;20095;-72
2022/09/05 08:32:55;;;;;;;8.10;5.43;;;21.10;99.90;;;;;;5005697;28;20083;-73
2022/09/05 08:35:45;;;;;;;6.32;5.25;;;21.30;99.90;;;;;;4988781;28;20486;-72
2022/09/05 08:38:13;;;;;;;7.05;5.53;;;21.30;99.90;;;;;;5008749;28;20049;-71
2022/09/05 08:40:48;;;;;;;8.52;5.43;;;21.30;99.90;;;;;;5005389;28;20059;-72
2022/09/05 08:43:28;;;;;;;5.82;5.32;;;21.40;99.90;;;;;;5007717;28;21054;-71
2022/09/05 08:46:10;;;;;;;9.02;5.25;;;21.40;99.90;;;;;;4994509;28;20044;-74
2022/09/05 08:49:01;;;;;;;6.22;5.07;;;21.60;99.90;;;;;;4988534;28;20720;-71
2022/09/05 08:51:59;;;;;;;9.65;5.07;;;21.80;99.90;;;;;;5008179;28;20108;-76
2022/09/05 08:54:37;;;;;;;7.65;5.38;;;21.80;99.90;;;;;;5013327;28;20454;-73
2022/09/05 08:57:20;;;;;;;6.35;5.32;;;21.90;99.90;;;;;;5001727;28;20042;-71
2022/09/05 08:59:59;;;;;;;6.63;5.60;;;22.00;99.90;;;;;;5013539;28;20088;-74
2022/09/05 09:02:55;;;;;;;5.32;4.82;;;22.00;99.90;;;;;;5009846;28;20052;-73
2022/09/05 09:05:45;;;;;;;5.85;5.10;;;22.10;99.90;;;;;;4998384;28;20038;-75
2022/09/05 09:08:16;;;;;;;5.15;4.65;;;22.20;99.90;;;;;;5000677;28;20394;-75
2022/09/05 09:10:56;;;;;;;7.95;5.53;;;22.20;99.90;;;;;;5011699;28;20033;-74
2022/09/05 09:13:27;;;;;;;5.50;5.00;;;22.30;99.90;;;;;;5017190;28;20044;-75
2022/09/05 09:16:24;;;;;;;5.10;4.60;;;22.60;99.90;;;;;;4998285;28;20128;-72
2022/09/05 09:18:50;;;;;;;5.32;4.65;;;22.70;99.90;;;;;;4995524;28;20048;-75
2022/09/05 09:21:35;;;;;;;5.53;4.80;;;22.90;99.90;;;;;;5028061;28;20041;-73
2022/09/05 09:24:15;;;;;;;5.13;4.10;;;23.00;99.90;;;;;;5014667;28;20046;-73
2022/09/05 09:26:54;;;;;;;5.85;4.65;;;23.20;99.90;;;;;;5011375;28;20523;-73
2022/09/05 09:29:22;;;;;;;6.43;4.80;;;23.30;99.90;;;;;;5021346;28;20140;-71
2022/09/05 09:32:12;;;;;;;10.80;4.60;;;23.50;99.90;;;;;;4989060;28;20050;-67
2022/09/05 09:34:43;;;;;;;6.40;4.13;;;23.60;99.90;;;;;;5011960;28;20041;-74
2022/09/05 09:37:25;;;;;;;4.63;4.20;;;23.70;99.90;;;;;;5014282;28;20547;-72
2022/09/05 09:40:07;;;;;;;9.13;4.35;;;23.90;99.90;;;;;;5011671;28;20064;-72
2022/09/05 09:43:00;;;;;;;4.90;4.10;;;24.20;99.90;;;;;;5004732;28;20072;-71
2022/09/05 09:46:04;;;;;;;4.65;3.50;;;24.60;99.90;;;;;;5007722;28;20555;-71
2022/09/05 09:49:01;;;;;;;7.63;3.78;;;25.00;99.90;;;;;;4933880;29;20155;-74
2022/09/05 09:51:53;;;;;;;5.22;4.28;;;25.10;99.90;;;;;;5008631;28;20103;-74
2022/09/05 09:55:00;;;;;;;3.67;3.38;;;25.40;99.90;;;;;;5011017;28;20144;-72
2022/09/05 09:57:32;;;;;;;3.28;2.97;;;25.70;99.90;;;;;;5011348;28;20045;-72
2022/09/05 10:00:22;;;;;;;8.60;3.20;;;26.10;99.90;;;;;;5010756;28;20045;-72
2022/09/05 10:03:07;;;;;;;7.65;3.33;;;26.10;99.90;;;;;;4977764;28;20042;-74
2022/09/05 10:05:51;;;;;;;3.40;3.03;;;26.40;99.90;;;;;;5009255;28;20849;-74
2022/09/05 10:08:53;;;;;;;3.63;2.92;;;26.50;99.90;;;;;;5027058;28;20709;-72
2022/09/05 10:11:40;;;;;;;3.33;3.00;;;26.80;99.90;;;;;;5011628;28;20051;-73
2022/09/05 10:14:11;;;;;;;3.63;2.70;;;26.90;99.90;;;;;;5009707;28;20038;-73
2022/09/05 10:16:43;;;;;;;3.13;2.90;;;26.80;99.90;;;;;;5011219;28;20494;-72
2022/09/05 10:19:28;;;;;;;2.85;2.65;;;26.70;99.90;;;;;;5010973;28;20029;-71
2022/09/05 10:21:54;;;;;;;4.35;2.83;;;26.70;99.90;;;;;;5012337;28;20126;-72
2022/09/05 10:24:38;;;;;;;3.95;3.25;;;26.70;99.90;;;;;;5013676;28;20045;-75
2022/09/05 10:27:25;;;;;;;3.15;2.90;;;26.90;99.90;;;;;;5027634;28;20044;-74
2022/09/05 10:30:09;;;;;;;3.17;2.80;;;26.90;98.90;;;;;;5017818;28;20061;-74
2022/09/05 10:32:40;;;;;;;;;;;26.90;99.90;;;;;;5013126;28;20051;-75
2022/09/05 10:35:37;;;;;;;3.60;2.67;;;26.80;90.20;;;;;;5009738;28;19924;-73
2022/09/05 10:38:06;;;;;;;2.90;2.70;;;26.80;94.00;;;;;;4994240;28;20056;-72
2022/09/05 10:40:36;;;;;;;4.05;3.00;;;26.80;94.10;;;;;;5023389;28;20049;-71
2022/09/05 10:43:38;;;;;;;3.63;2.85;;;26.70;95.40;;;;;;5012248;28;20053;-75
2022/09/05 10:46:24;;;;;;;2.95;2.63;;;27.00;92.30;;;;;;5020943;28;20041;-76
2022/09/05 10:48:57;;;;;;;3.40;3.03;;;27.10;88.10;;;;;;5010053;28;20127;-76
2022/09/05 10:51:33;;;;;;;4.10;2.80;;;27.30;91.70;;;;;;5012317;28;20112;-74
2022/09/05 10:54:32;;;;;;;3.60;2.90;;;27.20;82.20;;;;;;5016378;28;20052;-77
2022/09/05 10:57:17;;;;;;;3.72;2.97;;;27.30;79.30;;;;;;5004646;28;20045;-73
2022/09/05 10:59:55;;;;;;;3.97;3.00;;;27.50;88.50;;;;;;4998284;28;20041;-76
2022/09/05 11:02:26;;;;;;;5.10;3.45;;;27.50;91.80;;;;;;5011474;28;20060;-74
2022/09/05 11:05:14;;;;;;;3.47;3.17;;;27.80;86.50;;;;;;5018170;28;20041;-73
2022/09/05 11:08:07;;;;;;;3.45;3.15;;;27.80;90.00;;;;;;4995917;28;20065;-74
2022/09/05 11:10:57;;;;;;;3.10;2.80;;;27.90;74.50;;;;;;5018532;28;20033;-73
2022/09/05 11:13:48;;;;;;;6.35;2.60;;;28.20;75.50;;;;;;4992869;28;20052;-72
2022/09/05 11:16:32;;;;;;;3.38;2.90;;;28.30;65.60;;;;;;5024807;28;20087;-75
2022/09/05 11:19:19;;;;;;;2.75;2.55;;;27.60;70.80;;;;;;5027943;28;20464;-74
2022/09/05 11:22:03;;;;;;;6.25;2.90;;;28.10;68.30;;;;;;5021095;28;20081;-74
2022/09/05 11:24:49;;;;;;;3.15;2.63;;;28.20;54.20;;;;;;5010352;28;20045;-72
2022/09/05 11:27:15;;;;;;;5.10;2.83;;;27.90;47.10;;;;;;4982973;28;20061;-76
2022/09/05 11:29:43;;;;;;;3.08;2.78;;;28.20;74.10;;;;;;5011026;28;20061;-73
2022/09/05 11:32:29;;;;;;;4.57;2.65;;;28.50;63.70;;;;;;5001784;28;20173;-75
2022/09/05 11:35:13;;;;;;;2.63;2.22;;;28.30;31.80;;;;;;5010186;28;20041;-74
2022/09/05 11:37:57;;;;;;;;;;;28.40;36.20;;;;;;4994527;28;20075;-73
2022/09/05 11:40:44;;;;;;;3.53;2.45;;;28.20;33.40;;;;;;5008535;28;19979;-76
2022/09/05 11:43:38;;;;;;;2.55;2.35;;;28.20;49.40;;;;;;4990918;28;20048;-75
2022/09/05 11:46:14;;;;;;;;;;;28.10;39.50;;;;;;4992770;28;20049;-75
2022/09/05 11:48:57;;;;;;;3.42;3.00;;;28.10;34.50;;;;;;5009002;28;19917;-72
2022/09/05 11:51:26;;;;;;;3.35;2.72;;;28.30;50.40;;;;;;5011107;28;20083;-72
2022/09/05 11:54:29;;;;;;;3.38;2.70;;;28.30;47.80;;;;;;5011124;28;20165;-72
2022/09/05 11:57:04;;;;;;;2.65;2.40;;;27.90;42.50;;;;;;5026104;28;20041;-73
2022/09/05 12:00:02;;;;;;;3.22;2.92;;;28.20;59.70;;;;;;5008933;28;20095;-72
2022/09/05 12:03:13;;;;;;;3.05;2.80;;;28.20;37.00;;;;;;5008137;28;20076;-75
2022/09/05 12:06:01;;;;;;;5.30;2.53;;;28.20;38.40;;;;;;4992941;28;20030;-75
2022/09/05 12:08:54;;;;;;;3.00;2.60;;;28.30;36.70;;;;;;4994175;28;20053;-73
2022/09/05 12:11:40;;;;;;;3.97;2.83;;;28.20;48.90;;;;;;4980778;28;20042;-76
2022/09/05 12:14:26;;;;;;;4.43;2.60;;;28.10;40.90;;;;;;5010351;28;20470;-75
2022/09/05 12:16:57;;;;;;;3.92;2.47;;;28.00;22.70;;;;;;4993680;28;20389;-73
2022/09/05 12:19:46;;;;;;;2.53;2.30;;;28.00;33.50;;;;;;5009953;28;20049;-74
2022/09/05 12:22:17;;;;;;;3.90;2.45;;;28.00;40.90;;;;;;4975773;28;20690;-74
2022/09/05 12:25:05;;;;;;;3.47;2.67;;;27.90;43.40;;;;;;5023093;28;20032;-72
2022/09/05 12:27:35;;;;;;;3.00;2.70;;;28.10;35.90;;;;;;5003324;28;20053;-72
2022/09/05 12:30:08;;;;;;;4.00;2.78;;;27.90;40.00;;;;;;4993763;28;20053;-72
2022/09/05 12:32:56;;;;;;;3.83;3.17;;;27.80;49.20;;;;;;5012492;28;20045;-73
2022/09/05 12:35:53;;;;;;;6.38;2.78;;;27.90;50.40;;;;;;5012063;28;20103;-73
2022/09/05 12:38:37;;;;;;;3.22;2.90;;;27.80;35.70;;;;;;5012818;28;20511;-72
2022/09/05 12:41:11;;;;;;;3.00;2.70;;;27.70;39.80;;;;;;5014854;28;20045;-72
2022/09/05 12:44:07;;;;;;;2.65;2.45;;;27.90;48.70;;;;;;5008197;28;20116;-73
2022/09/05 12:46:44;;;;;;;2.75;2.55;;;28.00;38.20;;;;;;4995502;28;20033;-72
2022/09/05 12:49:25;;;;;;;4.22;2.90;;;27.90;38.40;;;;;;5013962;28;20167;-72
2022/09/05 12:52:03;;;;;;;4.70;2.67;;;27.80;37.20;;;;;;5012985;28;20108;-73
2022/09/05 12:54:46;;;;;;;3.55;2.85;;;27.90;35.80;;;;;;5018937;28;20034;-73
2022/09/05 12:57:21;;;;;;;4.95;2.80;;;27.80;34.50;;;;;;4996910;28;20107;-73
2022/09/05 12:59:50;;;;;;;3.95;2.75;;;27.80;41.20;;;;;;4997673;28;20049;-71
2022/09/05 13:02:23;;;;;;;3.97;2.70;;;27.90;38.40;;;;;;4997759;28;20045;-72
2022/09/05 13:04:56;;;;;;;3.23;2.90;;;27.70;42.40;;;;;;4996529;28;20033;-73
2022/09/05 13:07:42;;;;;;;3.47;3.10;;;27.80;49.40;;;;;;5013913;28;20099;-77
2022/09/05 13:10:14;;;;;;;7.00;3.15;;;27.80;42.60;;;;;;5011852;28;20045;-76
2022/09/05 13:13:06;;;;;;;4.35;2.88;;;27.80;45.70;;;;;;4995259;28;20049;-73
2022/09/05 13:15:36;;;;;;;4.10;2.55;;;27.80;38.30;;;;;;4996430;28;20053;-74
2022/09/05 13:18:30;;;;;;;2.63;2.42;;;27.80;43.10;;;;;;4998148;28;20044;-74
2022/09/05 13:21:01;;;;;;;4.13;2.55;;;27.70;37.20;;;;;;4997712;28;20398;-74
2022/09/05 13:23:37;;;;;;;3.55;2.53;;;27.60;47.00;;;;;;5011924;28;20045;-74
2022/09/05 13:26:22;;;;;;;2.83;2.45;;;27.60;43.30;;;;;;4996863;28;20044;-71
2022/09/05 13:29:12;;;;;;;7.25;2.92;;;27.60;37.00;;;;;;5011178;28;20059;-75
2022/09/05 13:31:41;;;;;;;4.00;2.50;;;27.60;38.80;;;;;;5012163;28;20057;-75
2022/09/05 13:34:36;;;;;;;4.07;2.50;;;27.80;29.30;;;;;;4993140;28;20041;-72
2022/09/05 13:37:27;;;;;;;2.90;2.47;;;28.10;24.50;;;;;;4996807;28;20135;-72
2022/09/05 13:39:58;;;;;;;4.55;2.42;;;28.60;15.70;;;;;;5012055;28;20199;-71
2022/09/05 13:42:42;;;;;;;4.13;2.67;;;29.00;10.30;;;;;;5002456;28;20049;-74
2022/09/05 13:45:17;;;;;;;4.00;2.58;;;29.60;16.50;;;;;;5029022;28;20385;-75
2022/09/05 13:47:55;;;;;;;3.13;2.65;;;30.20;2.50;;;;;;5022905;28;21592;-74
2022/09/05 13:50:25;;;;;;;4.60;2.60;;;30.00;1.00;;;;;;5032506;28;20033;-74
2022/09/05 13:53:25;;;;;;;6.10;2.72;;;29.80;1.00;;;;;;5033814;28;20067;-73
2022/09/05 13:55:57;;;;;;;5.78;2.83;;;30.10;1.00;;;;;;5006517;28;20097;-73
2022/09/05 13:58:45;;;;;;;5.50;2.65;;;29.90;1.00;;;;;;5030977;28;20500;-72
2022/09/05 14:01:28;;;;;;;5.28;2.40;;;29.20;1.00;;;;;;5005516;28;20052;-74
2022/09/05 14:04:12;;;;;;;4.93;2.50;;;28.90;1.00;;;;;;5009831;28;20039;-76
2022/09/05 14:07:10;;;;;;;4.32;2.40;;;29.00;9.90;;;;;;5012728;28;20119;-77
2022/09/05 14:09:54;;;;;;;4.55;2.53;;;29.10;1.00;;;;;;4995264;28;20394;-73